createdAt,value
2018-03-17T00:02:04.917Z,3.55
2018-03-17T00:04:39.247Z,2.30
2018-03-17T00:07:13.757Z,3.50
2018-03-17T00:09:48.340Z,1.60
2018-03-17T00:12:23.025Z,2.10
2018-03-17T00:14:57.303Z,2.05
2018-03-17T00:17:32.460Z,2.85
2018-03-17T00:20:07.904Z,1.90
2018-03-17T00:22:42.941Z,2.72
2018-03-17T00:25:17.512Z,2.10
2018-03-17T00:27:53.738Z,6.15
2018-03-17T00:30:28.239Z,2.08
2018-03-17T00:33:02.871Z,2.30
2018-03-17T00:35:38.143Z,2.30
2018-03-17T00:38:13.360Z,1.95
2018-03-17T00:40:47.920Z,2.20
2018-03-17T00:43:22.621Z,2.65
2018-03-17T00:45:57.418Z,2.08
2018-03-17T00:48:32.085Z,2.33
2018-03-17T00:51:06.458Z,2.50
2018-03-17T00:53:40.902Z,2.35
2018-03-17T00:56:15.312Z,2.35
2018-03-17T00:58:49.753Z,2.10
2018-03-17T01:01:24.350Z,2.17
2018-03-17T01:03:59.229Z,2.28
2018-03-17T01:06:34.264Z,2.80
2018-03-17T01:09:08.760Z,2.00
2018-03-17T01:11:43.211Z,1.95
2018-03-17T01:14:18.011Z,1.90
2018-03-17T01:16:52.564Z,1.92
2018-03-17T01:19:27.068Z,2.22
2018-03-17T01:22:01.620Z,2.15
2018-03-17T01:24:36.112Z,2.10
2018-03-17T01:27:10.767Z,2.40
2018-03-17T01:29:45.566Z,2.70
2018-03-17T01:32:20.920Z,2.17
2018-03-17T01:34:55.644Z,2.20
2018-03-17T01:37:30.968Z,2.00
2018-03-17T01:40:05.508Z,2.15
2018-03-17T01:42:40.870Z,1.50
2018-03-17T01:45:15.373Z,2.28
2018-03-17T01:47:49.832Z,2.35
2018-03-17T01:50:25.237Z,2.20
2018-03-17T01:52:59.573Z,1.70
2018-03-17T01:55:34.094Z,2.75
2018-03-17T01:58:08.763Z,2.10
2018-03-17T02:00:43.500Z,1.70
2018-03-17T02:03:18.148Z,2.35
2018-03-17T02:05:53.397Z,2.00
2018-03-17T02:08:27.916Z,2.50
2018-03-17T02:11:02.444Z,2.20
2018-03-17T02:13:36.875Z,1.90
2018-03-17T02:16:12.299Z,1.98
2018-03-17T02:18:46.748Z,3.00
2018-03-17T02:21:21.560Z,2.30
2018-03-17T02:23:55.856Z,1.92
2018-03-17T02:26:30.196Z,1.83
2018-03-17T02:29:04.627Z,2.60
2018-03-17T02:31:39.246Z,2.15
2018-03-17T02:34:13.880Z,2.05
2018-03-17T02:36:48.714Z,2.15
2018-03-17T02:39:23.124Z,2.50
2018-03-17T02:41:59.179Z,2.17
2018-03-17T02:44:33.748Z,2.28
2018-03-17T02:47:08.429Z,2.20
2018-03-17T02:49:42.959Z,1.90
2018-03-17T02:52:17.486Z,2.37
2018-03-17T02:54:52.019Z,2.62
2018-03-17T02:57:26.524Z,1.95
2018-03-17T03:00:00.847Z,2.30
2018-03-17T03:02:37.822Z,1.65
2018-03-17T03:05:13.020Z,2.87
2018-03-17T03:07:47.713Z,2.45
2018-03-17T03:10:22.101Z,1.73
2018-03-17T03:12:56.749Z,2.40
2018-03-17T03:15:32.037Z,2.30
2018-03-17T03:18:06.980Z,2.20
2018-03-17T03:20:41.408Z,2.25
2018-03-17T03:23:15.857Z,2.25
2018-03-17T03:25:50.245Z,2.85
2018-03-17T03:28:25.111Z,2.30
2018-03-17T03:30:59.504Z,1.90
2018-03-17T03:33:34.148Z,2.03
2018-03-17T03:36:08.421Z,2.85
2018-03-17T03:38:43.206Z,2.22
2018-03-17T03:41:17.633Z,2.20
2018-03-17T03:43:53.072Z,2.47
2018-03-17T03:46:27.406Z,2.20
2018-03-17T03:49:01.934Z,2.08
2018-03-17T03:51:37.254Z,2.37
2018-03-17T03:54:13.838Z,2.80
2018-03-17T03:56:48.277Z,2.42
2018-03-17T03:59:23.041Z,2.40
2018-03-17T04:01:58.056Z,2.15
2018-03-17T04:04:32.454Z,1.98
2018-03-17T04:07:06.873Z,2.35
2018-03-17T04:09:41.276Z,2.45
2018-03-17T04:12:15.632Z,2.08
2018-03-17T04:14:50.828Z,2.15
2018-03-17T04:17:25.325Z,1.90
2018-03-17T04:19:59.872Z,1.85
2018-03-17T04:22:35.214Z,2.30
2018-03-17T04:25:09.740Z,2.50
2018-03-17T04:27:44.180Z,2.40
2018-03-17T04:30:19.600Z,2.30
2018-03-17T04:32:53.957Z,2.17
2018-03-17T04:35:29.273Z,2.62
2018-03-17T04:38:03.768Z,2.10
2018-03-17T04:40:38.731Z,2.10
2018-03-17T04:43:13.012Z,2.42
2018-03-17T04:45:47.562Z,2.45
2018-03-17T04:48:22.584Z,2.12
2018-03-17T04:50:57.220Z,2.20
2018-03-17T04:53:31.633Z,2.10
2018-03-17T04:56:06.068Z,2.22
2018-03-17T04:58:41.597Z,3.22
2018-03-17T05:01:16.137Z,2.30
2018-03-17T05:03:50.669Z,2.15
2018-03-17T05:06:25.181Z,2.20
2018-03-17T05:08:59.584Z,3.25
2018-03-17T05:11:34.237Z,2.20
2018-03-17T05:14:08.648Z,1.90
2018-03-17T05:16:43.479Z,2.33
2018-03-17T05:19:17.957Z,2.08
2018-03-17T05:21:52.438Z,1.70
2018-03-17T05:24:26.951Z,2.08
2018-03-17T05:27:01.313Z,2.00
2018-03-17T05:29:36.606Z,2.35
2018-03-17T05:32:12.767Z,2.10
2018-03-17T05:34:47.704Z,2.37
2018-03-17T05:37:23.253Z,2.03
2018-03-17T05:39:58.393Z,1.95
2018-03-17T05:42:32.926Z,2.20
2018-03-17T05:45:07.324Z,2.22
2018-03-17T05:47:41.971Z,1.80
2018-03-17T05:50:16.536Z,2.15
2018-03-17T05:52:51.218Z,1.90
2018-03-17T05:55:25.936Z,1.70
2018-03-17T05:58:00.576Z,1.87
2018-03-17T06:00:35.912Z,1.90
2018-03-17T06:03:10.540Z,1.98
2018-03-17T06:05:45.049Z,2.47
2018-03-17T06:08:19.714Z,2.03
2018-03-17T06:10:55.475Z,1.70
2018-03-17T06:13:30.070Z,1.98
2018-03-17T06:16:05.390Z,1.67
2018-03-17T06:18:39.929Z,1.75
2018-03-17T06:21:14.485Z,1.77
2018-03-17T06:23:48.978Z,1.90
2018-03-17T06:26:23.491Z,2.10
2018-03-17T06:28:58.024Z,1.90
2018-03-17T06:31:32.921Z,1.95
2018-03-17T06:34:07.679Z,2.00
2018-03-17T06:36:42.157Z,2.10
2018-03-17T06:39:17.745Z,1.90
2018-03-17T06:41:52.056Z,2.33
2018-03-17T06:44:28.806Z,1.83
2018-03-17T06:47:03.110Z,2.20
2018-03-17T06:49:37.684Z,2.20
2018-03-17T06:52:11.936Z,1.92
2018-03-17T06:54:47.348Z,1.80
2018-03-17T06:57:21.855Z,2.20
2018-03-17T06:59:56.640Z,1.67
2018-03-17T07:02:31.081Z,2.42
2018-03-17T07:05:05.758Z,2.15
2018-03-17T07:07:40.118Z,2.25
2018-03-17T07:10:14.689Z,1.92
2018-03-17T07:12:49.282Z,1.80
2018-03-17T07:15:23.941Z,2.35
2018-03-17T07:17:59.293Z,2.03
2018-03-17T07:20:33.970Z,2.60
2018-03-17T07:23:08.347Z,2.10
2018-03-17T07:25:42.856Z,2.20
2018-03-17T07:28:17.350Z,2.15
2018-03-17T07:30:51.896Z,1.70
2018-03-17T07:33:26.451Z,1.83
2018-03-17T07:36:01.353Z,1.80
2018-03-17T07:38:35.944Z,1.92
2018-03-17T07:41:10.608Z,1.98
2018-03-17T07:43:45.193Z,1.95
2018-03-17T07:46:19.861Z,1.58
2018-03-17T07:48:54.279Z,2.12
2018-03-17T07:51:28.717Z,2.35
2018-03-17T07:54:03.147Z,1.92
2018-03-17T07:56:37.544Z,1.67
2018-03-17T07:59:11.838Z,1.70
2018-03-17T08:01:46.447Z,1.73
2018-03-17T08:04:21.729Z,2.62
2018-03-17T08:06:56.271Z,2.17
2018-03-17T08:09:30.750Z,2.08
2018-03-17T08:12:05.293Z,1.45
2018-03-17T08:14:39.745Z,1.80
2018-03-17T08:17:14.341Z,2.00
2018-03-17T08:19:48.737Z,1.90
2018-03-17T08:22:24.055Z,1.50
2018-03-17T08:24:59.369Z,2.37
2018-03-17T08:27:33.978Z,1.77
2018-03-17T08:30:09.201Z,1.62
2018-03-17T08:32:43.733Z,2.30
2018-03-17T08:35:18.004Z,1.42
2018-03-17T08:37:52.569Z,2.25
2018-03-17T08:40:27.079Z,2.00
2018-03-17T08:43:02.451Z,1.90
2018-03-17T08:45:37.070Z,1.90
2018-03-17T08:48:12.379Z,2.03
2018-03-17T08:50:46.815Z,1.73
2018-03-17T08:53:21.254Z,2.10
2018-03-17T08:55:55.819Z,2.37
2018-03-17T08:58:30.861Z,1.80
2018-03-17T09:01:05.444Z,2.25
2018-03-17T09:03:40.152Z,2.20
2018-03-17T09:06:14.757Z,2.33
2018-03-17T09:08:49.333Z,1.73
2018-03-17T09:11:23.858Z,2.00
2018-03-17T09:13:58.358Z,1.90
2018-03-17T09:16:33.726Z,1.87
2018-03-17T09:19:08.429Z,1.45
2018-03-17T09:21:43.189Z,1.70
2018-03-17T09:24:18.539Z,1.80
2018-03-17T09:26:52.897Z,1.40
2018-03-17T09:29:27.600Z,2.30
2018-03-17T09:32:02.068Z,1.62
2018-03-17T09:34:37.460Z,1.95
2018-03-17T09:37:12.516Z,2.47
2018-03-17T09:39:47.893Z,1.52
2018-03-17T09:42:22.338Z,1.55
2018-03-17T09:44:57.042Z,1.98
2018-03-17T09:47:31.876Z,1.67
2018-03-17T09:50:06.603Z,1.95
2018-03-17T09:52:41.769Z,2.67
2018-03-17T09:55:16.466Z,1.70
2018-03-17T09:57:51.424Z,2.03
2018-03-17T10:00:26.485Z,1.62
2018-03-17T10:03:01.582Z,2.53
2018-03-17T10:05:36.308Z,1.85
2018-03-17T10:08:10.873Z,1.48
2018-03-17T10:10:45.354Z,2.00
2018-03-17T10:13:19.840Z,1.65
2018-03-17T10:15:54.416Z,2.33
2018-03-17T10:18:29.756Z,1.80
2018-03-17T10:21:05.071Z,1.80
2018-03-17T10:23:39.579Z,1.90
2018-03-17T10:26:14.101Z,2.08
2018-03-17T10:28:48.641Z,2.15
2018-03-17T10:31:23.056Z,1.92
2018-03-17T10:33:57.455Z,2.28
2018-03-17T10:36:31.896Z,1.95
2018-03-17T10:39:06.712Z,2.05
2018-03-17T10:41:41.981Z,1.87
2018-03-17T10:44:16.388Z,1.77
2018-03-17T10:46:51.033Z,2.20
2018-03-17T10:49:25.492Z,2.17
2018-03-17T10:52:00.073Z,2.45
2018-03-17T10:54:34.364Z,2.10
2018-03-17T10:57:08.922Z,1.95
2018-03-17T10:59:45.234Z,1.75
2018-03-17T11:02:21.437Z,2.30
2018-03-17T11:04:55.885Z,2.03
2018-03-17T11:07:31.122Z,1.80
2018-03-17T11:10:05.609Z,2.00
2018-03-17T11:12:40.353Z,2.80
2018-03-17T11:15:15.923Z,2.30
2018-03-17T11:17:50.533Z,2.00
2018-03-17T11:20:26.469Z,2.05
2018-03-17T11:23:01.372Z,2.30
2018-03-17T11:25:35.827Z,2.45
2018-03-17T11:28:10.436Z,2.78
2018-03-17T11:30:44.972Z,2.45
2018-03-17T11:33:19.816Z,2.35
2018-03-17T11:35:54.377Z,2.30
2018-03-17T11:38:29.065Z,2.45
2018-03-17T11:41:03.587Z,2.15
2018-03-17T11:43:38.113Z,2.60
2018-03-17T11:46:12.536Z,2.37
2018-03-17T11:48:47.110Z,1.70
2018-03-17T11:51:21.656Z,2.17
2018-03-17T11:53:56.205Z,2.00
2018-03-17T11:56:30.786Z,2.00
2018-03-17T11:59:05.885Z,1.90
2018-03-17T12:01:40.363Z,2.60
2018-03-17T12:04:15.121Z,2.25
2018-03-17T12:06:49.716Z,2.60
2018-03-17T12:09:25.186Z,2.58
2018-03-17T12:11:59.521Z,2.40
2018-03-17T12:14:34.005Z,2.87
2018-03-17T12:17:08.465Z,2.55
2018-03-17T12:19:42.973Z,2.45
2018-03-17T12:22:17.396Z,2.42
2018-03-17T12:24:51.822Z,2.22
2018-03-17T12:27:26.332Z,2.33
2018-03-17T12:30:00.869Z,3.00
2018-03-17T12:32:35.466Z,2.95
2018-03-17T12:35:09.923Z,2.30
2018-03-17T12:37:44.350Z,2.83
2018-03-17T12:40:21.617Z,2.42
2018-03-17T12:42:53.137Z,2.12
2018-03-17T12:45:27.692Z,2.40
2018-03-17T12:48:02.137Z,2.85
2018-03-17T12:50:36.589Z,2.62
2018-03-17T12:53:10.932Z,2.45
2018-03-17T12:55:46.419Z,2.20
2018-03-17T12:58:20.839Z,2.58
2018-03-17T13:00:55.863Z,2.45
2018-03-17T13:03:31.096Z,2.90
2018-03-17T13:06:06.139Z,3.10
2018-03-17T13:08:41.606Z,1.90
2018-03-17T13:11:16.207Z,3.15
2018-03-17T13:13:51.109Z,2.90
2018-03-17T13:16:25.670Z,2.20
2018-03-17T13:19:00.218Z,2.40
2018-03-17T13:21:34.917Z,2.55
2018-03-17T13:24:10.256Z,2.90
2018-03-17T13:27:02.598Z,2.55
2018-03-17T13:29:37.997Z,2.85
2018-03-17T13:35:56.805Z,2.65
2018-03-17T13:38:31.553Z,2.60
2018-03-17T13:41:06.684Z,2.72
2018-03-17T13:43:41.260Z,2.60
2018-03-17T13:46:15.865Z,2.62
2018-03-17T13:48:50.448Z,2.90
2018-03-17T13:51:24.971Z,2.83
2018-03-17T13:53:59.441Z,2.58
2018-03-17T13:56:33.868Z,2.37
2018-03-17T13:59:08.509Z,2.58
2018-03-17T14:01:43.017Z,2.90
2018-03-17T14:04:17.605Z,3.10
2018-03-17T14:06:52.051Z,3.30
2018-03-17T14:09:27.076Z,3.08
2018-03-17T14:12:01.515Z,2.95
2018-03-17T14:14:36.719Z,3.35
2018-03-17T14:17:11.254Z,2.75
2018-03-17T14:19:45.711Z,3.15
2018-03-17T14:22:20.090Z,2.72
2018-03-17T14:24:54.815Z,2.70
2018-03-17T14:27:29.249Z,2.70
2018-03-17T14:30:03.861Z,3.03
2018-03-17T14:32:38.194Z,2.33
2018-03-17T14:35:12.700Z,3.00
2018-03-17T14:37:47.230Z,2.92
2018-03-17T14:40:21.953Z,3.05
2018-03-17T14:42:56.933Z,3.00
2018-03-17T14:45:31.586Z,3.08
2018-03-17T14:48:06.060Z,2.78
2018-03-17T14:50:40.993Z,2.70
2018-03-17T14:53:15.412Z,2.80
2018-03-17T14:55:49.911Z,2.95
2018-03-17T14:58:24.315Z,2.85
2018-03-17T15:00:58.921Z,2.85
2018-03-17T15:03:34.005Z,2.45
2018-03-17T15:06:08.825Z,2.50
2018-03-17T15:08:43.163Z,3.28
2018-03-17T15:11:18.704Z,2.87
2018-03-17T15:13:53.040Z,3.20
2018-03-17T15:16:27.509Z,2.60
2018-03-17T15:19:02.226Z,3.08
2018-03-17T15:21:36.777Z,3.20
2018-03-17T15:24:11.209Z,3.55
2018-03-17T15:26:46.249Z,2.85
2018-03-17T15:29:20.756Z,2.62
2018-03-17T15:31:55.489Z,4.10
2018-03-17T15:34:30.006Z,2.85
2018-03-17T15:37:04.540Z,2.95
2018-03-17T15:39:39.879Z,3.30
2018-03-17T15:42:14.405Z,2.80
2018-03-17T15:44:49.550Z,3.75
2018-03-17T15:47:24.288Z,3.12
2018-03-17T15:49:58.733Z,2.75
2018-03-17T15:52:33.546Z,3.22
2018-03-17T15:55:07.979Z,3.37
2018-03-17T15:57:42.469Z,2.42
2018-03-17T16:00:17.184Z,2.92
2018-03-17T16:02:51.934Z,2.72
2018-03-17T16:05:27.033Z,2.92
2018-03-17T16:08:01.786Z,3.53
2018-03-17T16:10:36.297Z,2.72
2018-03-17T16:13:10.932Z,3.10
2018-03-17T16:15:45.571Z,3.10
2018-03-17T16:18:20.188Z,2.40
2018-03-17T16:20:54.961Z,2.95
2018-03-17T16:23:29.741Z,3.25
2018-03-17T16:26:04.236Z,2.95
2018-03-17T16:28:38.784Z,2.37
2018-03-17T16:31:13.233Z,3.33
2018-03-17T16:33:47.842Z,2.80
2018-03-17T16:36:22.428Z,2.75
2018-03-17T16:38:56.884Z,3.10
2018-03-17T16:41:31.567Z,3.90
2018-03-17T16:44:05.943Z,3.12
2018-03-17T16:46:40.620Z,2.60
2018-03-17T16:49:15.999Z,3.30
2018-03-17T16:51:50.466Z,2.70
2018-03-17T16:54:25.014Z,2.80
2018-03-17T16:56:59.887Z,3.20
2018-03-17T16:59:34.728Z,3.17
2018-03-17T17:02:09.223Z,3.10
2018-03-17T17:04:44.386Z,3.03
2018-03-17T17:07:18.881Z,3.97
2018-03-17T17:09:53.632Z,3.35
2018-03-17T17:12:28.171Z,2.70
2018-03-17T17:15:02.672Z,2.95
2018-03-17T17:17:37.103Z,3.58
2018-03-17T17:20:11.720Z,2.90
2018-03-17T17:22:46.345Z,2.42
2018-03-17T17:25:20.779Z,2.80
2018-03-17T17:27:55.569Z,3.08
2018-03-17T17:30:30.242Z,3.47
2018-03-17T17:33:04.773Z,3.03
2018-03-17T17:35:39.780Z,2.60
2018-03-17T17:38:14.294Z,2.97
2018-03-17T17:40:49.047Z,2.75
2018-03-17T17:43:24.692Z,3.08
2018-03-17T17:46:00.200Z,3.37
2018-03-17T17:48:35.125Z,3.20
2018-03-17T17:51:09.616Z,2.70
2018-03-17T17:53:44.043Z,2.90
2018-03-17T17:56:18.650Z,3.10
2018-03-17T17:58:54.192Z,2.97
2018-03-17T18:01:30.136Z,3.70
2018-03-17T18:04:04.462Z,3.22
2018-03-17T18:06:39.992Z,2.67
2018-03-17T18:09:14.443Z,2.50
2018-03-17T18:11:48.998Z,2.75
2018-03-17T18:14:23.640Z,3.90
2018-03-17T18:16:58.088Z,3.25
2018-03-17T18:19:32.493Z,3.60
2018-03-17T18:22:07.167Z,2.90
2018-03-17T18:24:42.290Z,3.15
2018-03-17T18:27:16.794Z,2.92
2018-03-17T18:29:51.356Z,2.72
2018-03-17T18:32:27.138Z,4.45
2018-03-17T18:35:01.957Z,3.25
2018-03-17T18:37:37.244Z,2.75
2018-03-17T18:40:12.079Z,3.30
2018-03-17T18:42:46.706Z,2.33
2018-03-17T18:45:21.196Z,3.17
2018-03-17T18:47:55.761Z,3.00
2018-03-17T18:50:31.138Z,3.10
2018-03-17T18:53:05.848Z,3.12
2018-03-17T18:55:41.231Z,3.22
2018-03-17T18:58:15.891Z,3.55
2018-03-17T19:00:50.921Z,3.47
2018-03-17T19:03:25.492Z,3.35
2018-03-17T19:05:59.972Z,3.90
2018-03-17T19:08:34.520Z,3.50
2018-03-17T19:11:09.222Z,2.72
2018-03-17T19:13:43.768Z,2.85
2018-03-17T19:16:18.276Z,3.20
2018-03-17T19:18:52.958Z,3.15
2018-03-17T19:21:27.553Z,4.00
2018-03-17T19:24:02.073Z,3.58
2018-03-17T19:26:36.769Z,3.05
2018-03-17T19:29:12.053Z,3.17
2018-03-17T19:31:46.535Z,4.20
2018-03-17T19:34:21.659Z,3.20
2018-03-17T19:36:56.930Z,3.45
2018-03-17T19:39:31.985Z,3.08
2018-03-17T19:42:07.191Z,2.72
2018-03-17T19:44:42.627Z,2.95
2018-03-17T19:47:18.081Z,2.70
2018-03-17T19:49:53.108Z,3.70
2018-03-17T19:52:27.842Z,4.45
2018-03-17T19:55:02.644Z,3.75
2018-03-17T19:57:36.966Z,4.70
2018-03-17T20:00:11.353Z,4.10
2018-03-17T20:02:46.402Z,2.95
2018-03-17T20:05:20.941Z,2.90
2018-03-17T20:07:55.331Z,3.30
2018-03-17T20:10:30.033Z,3.50
2018-03-17T20:13:04.977Z,2.95
2018-03-17T20:15:39.400Z,3.80
2018-03-17T20:18:13.713Z,3.70
2018-03-17T20:20:48.315Z,3.67
2018-03-17T20:23:23.654Z,3.35
2018-03-17T20:25:59.212Z,3.03
2018-03-17T20:28:33.480Z,3.30
2018-03-17T20:31:08.049Z,3.53
2018-03-17T20:33:43.396Z,3.45
2018-03-17T20:36:17.981Z,3.00
2018-03-17T20:38:52.594Z,3.75
2018-03-17T20:41:27.024Z,3.50
2018-03-17T20:44:02.397Z,3.10
2018-03-17T20:46:36.822Z,3.05
2018-03-17T20:49:11.332Z,3.60
2018-03-17T20:51:45.870Z,2.85
2018-03-17T20:54:20.276Z,3.60
2018-03-17T20:56:54.654Z,3.47
2018-03-17T20:59:29.152Z,3.05
2018-03-17T21:02:03.810Z,3.22
2018-03-17T21:04:38.381Z,2.20
2018-03-17T21:07:12.957Z,3.78
2018-03-17T21:09:47.428Z,3.65
2018-03-17T21:12:22.502Z,3.03
2018-03-17T21:14:57.706Z,3.40
2018-03-17T21:17:32.166Z,3.17
2018-03-17T21:20:06.737Z,3.40
2018-03-17T21:22:41.181Z,2.95
2018-03-17T21:25:18.273Z,3.40
2018-03-17T21:27:53.616Z,3.10
2018-03-17T21:30:28.791Z,2.78
2018-03-17T21:33:03.278Z,2.30
2018-03-17T21:35:38.860Z,2.90
2018-03-17T21:38:13.302Z,3.50
2018-03-17T21:40:47.848Z,3.80
2018-03-17T21:43:22.190Z,2.95
2018-03-17T21:45:56.720Z,3.40
2018-03-17T21:48:31.152Z,3.50
2018-03-17T21:51:05.733Z,4.15
2018-03-17T21:53:40.172Z,3.25
2018-03-17T21:56:14.694Z,3.00
2018-03-17T21:58:49.140Z,3.45
2018-03-17T22:01:24.244Z,3.12
2018-03-17T22:03:59.615Z,3.72
2018-03-17T22:06:34.332Z,3.17
2018-03-17T22:09:09.147Z,3.05
2018-03-17T22:11:43.674Z,3.40
2018-03-17T22:14:18.493Z,3.45
2018-03-17T22:16:53.836Z,3.60
2018-03-17T22:19:28.360Z,3.50
2018-03-17T22:22:02.924Z,3.87
2018-03-17T22:24:37.421Z,3.20
2018-03-17T22:27:12.048Z,3.12
2018-03-17T22:29:46.498Z,3.90
2018-03-17T22:32:21.100Z,3.35
2018-03-17T22:34:55.706Z,3.28
2018-03-17T22:37:30.249Z,3.00
2018-03-17T22:40:04.709Z,3.50
2018-03-17T22:42:40.929Z,4.05
2018-03-17T22:45:15.461Z,2.72
2018-03-17T22:47:50.052Z,4.20
2018-03-17T22:50:24.720Z,3.45
2018-03-17T22:52:59.235Z,3.42
2018-03-17T22:55:33.944Z,4.30
2018-03-17T22:58:08.941Z,4.00
2018-03-17T23:00:43.605Z,3.60
2018-03-17T23:03:18.765Z,3.80
2018-03-17T23:05:53.300Z,4.10
2018-03-17T23:08:28.301Z,4.22
2018-03-17T23:11:02.694Z,4.45
2018-03-17T23:13:37.140Z,3.33
2018-03-17T23:16:11.725Z,3.83
2018-03-17T23:18:47.820Z,4.15
2018-03-17T23:21:22.907Z,3.20
2018-03-17T23:23:57.488Z,3.62
2018-03-17T23:26:32.473Z,3.60
2018-03-17T23:29:06.999Z,3.33
2018-03-17T23:31:41.256Z,5.03
2018-03-17T23:34:15.788Z,3.42
2018-03-17T23:36:50.321Z,3.53
2018-03-17T23:39:25.568Z,3.75
2018-03-17T23:41:59.982Z,7.40
2018-03-17T23:44:35.384Z,3.97
2018-03-17T23:47:10.556Z,4.15
2018-03-17T23:49:45.121Z,5.18
2018-03-17T23:52:19.665Z,3.58
2018-03-17T23:54:55.389Z,3.72
2018-03-17T23:57:29.732Z,4.32
